KIFA

Iowa Falls Municipal Airport

Iowa Falls, Iowa, USA
METAR KIFA 101455Z AUTO 26004KT 1/2SM FZFG OVC002 M07/M07 A3026 RMK AO2 T10661074
Observed Flight Rules
Dec-10 @ 14:55 UTC (22 minutes ago) Instrument Flight Rules
Wind Visibility Clouds Conditions
260° at 4 knots 1/2 miles
  • Overcast at 200' AGL
  • Freezing
  • Fog
Temperatures Readings
Current -7°C / 19°F
Dewpoint -7°C / 19°F
Humidity 100%
Altimeter 30.26" Hg
Pressure 1025 hPa
Elevation 347
METAR KIFA 101455Z AUTO 26004KT 1/2SM FZFG OVC002 M07/M07 A3026 RMK AO2 T10661074
Observed Flight Rules
Dec-10 @ 14:55 UTC
(22 minutes ago)
LIFR
Wind Visibility
260° at 4 knots 1/2 miles
Clouds
  • Overcast at 200' AGL
Conditions
  • Freezing
  • Fog
Temperature Dewpoint
-7°C / 19°F -7°C / 19°F
Humidity Altimeter Pressure
100% 30.26" Hg 1025 hPa